Terminal Aerodrome Forecast
Issued by NWS

Home | Current Version | Previous Version | Text Only | Print | Product List | Glossary On
Versions: 1 2 3 4 5 6 7 8 9 10 11 12 13 14 15 16 17 18 19 20 21
000
FTUS43 KICT 280403 AAA
TAFSLN
TAF AMD
KSLN 280403Z 2804/2824 15012KT P6SM VCTS SCT035CB BKN100
      TEMPO 2804/2808 -TSRA
     FM281100 15010KT P6SM VCTS BKN025CB
     FM281500 18015G22KT P6SM BKN050=

USA.gov is the U.S. government's official web portal to all federal, state and local government web resources and services.